createdAt,value
2023-04-28T00:00:47.472Z,4.60
2023-04-28T00:05:49.618Z,5.03
2023-04-28T00:10:51.440Z,4.53
2023-04-28T00:15:53.843Z,4.93
2023-04-28T00:20:58.687Z,4.55
2023-04-28T00:26:00.750Z,4.70
2023-04-28T00:31:02.892Z,5.20
2023-04-28T00:36:05.061Z,5.15
2023-04-28T00:41:07.251Z,5.30
2023-04-28T00:46:08.996Z,4.70
2023-04-28T00:51:10.904Z,5.25
2023-04-28T00:56:12.869Z,5.20
2023-04-28T01:01:14.640Z,5.20
2023-04-28T01:06:17.363Z,4.93
2023-04-28T01:11:19.229Z,5.55
2023-04-28T01:16:21.090Z,5.40
2023-04-28T01:21:32.917Z,5.25
2023-04-28T01:26:37.102Z,5.72
2023-04-28T01:31:39.071Z,5.63
2023-04-28T01:36:40.930Z,5.97
2023-04-28T01:41:43.235Z,5.68
2023-04-28T01:46:44.966Z,6.13
2023-04-28T01:51:46.715Z,5.60
2023-04-28T01:56:48.391Z,5.65
2023-04-28T02:01:50.132Z,6.13
2023-04-28T02:06:52.142Z,6.35
2023-04-28T02:11:53.809Z,6.22
2023-04-28T02:16:55.662Z,6.25
2023-04-28T02:21:57.334Z,6.40
2023-04-28T02:26:59.065Z,6.55
2023-04-28T02:32:01.576Z,6.85
2023-04-28T02:37:03.333Z,6.22
2023-04-28T02:42:05.349Z,7.28
2023-04-28T02:47:07.159Z,7.50
2023-04-28T02:52:09.075Z,7.28
2023-04-28T02:57:10.788Z,7.57
2023-04-28T03:02:12.805Z,8.38
2023-04-28T03:07:14.795Z,7.32
2023-04-28T03:12:16.541Z,7.90
2023-04-28T03:17:18.343Z,7.45
2023-04-28T03:22:20.046Z,8.30
2023-04-28T03:27:22.134Z,8.65
2023-04-28T03:32:23.803Z,8.85
2023-04-28T03:37:25.742Z,9.10
2023-04-28T03:42:28.821Z,9.27
2023-04-28T03:47:30.583Z,8.95
2023-04-28T03:52:35.162Z,8.65
2023-04-28T03:57:36.886Z,8.90
2023-04-28T04:02:38.839Z,10.02
2023-04-28T04:07:41.102Z,9.05
2023-04-28T04:12:42.862Z,9.05
2023-04-28T04:17:44.711Z,9.77
2023-04-28T04:22:46.493Z,9.27
2023-04-28T04:27:48.819Z,9.93
2023-04-28T04:32:50.664Z,9.93
2023-04-28T04:37:52.441Z,9.18
2023-04-28T04:42:54.151Z,9.65
2023-04-28T04:47:55.908Z,10.05
2023-04-28T04:52:58.252Z,9.75
2023-04-28T04:58:00.025Z,10.15
2023-04-28T05:03:01.979Z,9.48
2023-04-28T05:08:03.945Z,10.10
2023-04-28T05:13:06.055Z,9.88
2023-04-28T05:18:10.982Z,10.00
2023-04-28T05:23:12.998Z,9.82
2023-04-28T05:28:14.778Z,9.20
2023-04-28T05:33:16.498Z,8.82
2023-04-28T05:38:18.226Z,9.70
2023-04-28T05:43:19.949Z,9.60
2023-04-28T05:48:21.718Z,10.30
2023-04-28T05:53:23.426Z,9.45
2023-04-28T05:58:25.280Z,9.40
2023-04-28T06:03:27.183Z,9.30
2023-04-28T06:08:29.031Z,9.15
2023-04-28T06:13:30.985Z,9.50
2023-04-28T06:18:33.062Z,8.93
2023-04-28T06:23:35.648Z,8.45
2023-04-28T06:28:37.355Z,8.50
2023-04-28T06:33:40.659Z,8.98
2023-04-28T06:38:44.866Z,8.52
2023-04-28T06:43:47.559Z,8.65
2023-04-28T06:48:49.231Z,8.63
2023-04-28T06:53:53.141Z,8.50
2023-04-28T06:58:55.600Z,9.50
2023-04-28T07:03:57.520Z,9.27
2023-04-28T07:08:59.616Z,8.48
2023-04-28T07:14:01.290Z,8.43
2023-04-28T07:19:04.474Z,9.88
2023-04-28T07:24:06.516Z,8.55
2023-04-28T07:29:09.048Z,8.43
2023-04-28T07:34:10.893Z,8.55
2023-04-28T07:39:13.048Z,8.40
2023-04-28T07:44:14.991Z,7.75
2023-04-28T07:49:17.178Z,8.45
2023-04-28T07:54:19.154Z,8.40
2023-04-28T07:59:21.170Z,8.63
2023-04-28T08:04:23.307Z,8.25
2023-04-28T08:09:27.970Z,8.75
2023-04-28T08:14:29.731Z,7.72
2023-04-28T08:19:31.771Z,8.23
2023-04-28T08:24:36.813Z,7.18
2023-04-28T08:29:39.224Z,7.55
2023-04-28T08:34:40.942Z,7.78
2023-04-28T08:39:42.822Z,7.82
2023-04-28T08:44:45.281Z,7.22
2023-04-28T08:49:48.519Z,6.00
2023-04-28T08:54:51.261Z,6.10
2023-04-28T08:59:53.884Z,6.47
2023-04-28T09:04:55.830Z,6.57
2023-04-28T09:10:15.946Z,6.00
2023-04-28T09:15:35.263Z,5.85
2023-04-28T09:20:37.321Z,6.10
2023-04-28T09:25:39.452Z,6.53
2023-04-28T09:30:41.298Z,7.22
2023-04-28T09:35:45.311Z,6.80
2023-04-28T09:40:49.725Z,7.15
2023-04-28T09:45:51.936Z,7.40
2023-04-28T09:50:55.525Z,7.43
2023-04-28T09:55:59.569Z,7.05
2023-04-28T10:01:01.687Z,8.52
2023-04-28T10:06:13.688Z,8.48
2023-04-28T10:11:16.294Z,8.75
2023-04-28T10:16:19.452Z,8.70
2023-04-28T10:21:23.538Z,8.35
2023-04-28T10:26:36.595Z,7.50
2023-04-28T10:31:38.584Z,8.40
2023-04-28T10:36:52.688Z,8.60
2023-04-28T10:41:54.720Z,8.63
2023-04-28T10:47:04.627Z,8.13
2023-04-28T10:52:38.787Z,8.48
2023-04-28T10:57:40.521Z,7.60
2023-04-28T11:02:44.718Z,7.90
2023-04-28T11:08:19.012Z,8.57
2023-04-28T11:13:28.539Z,8.30
2023-04-28T11:18:31.700Z,8.63
2023-04-28T11:23:33.566Z,7.93
2023-04-28T11:28:36.689Z,7.97
2023-04-28T11:33:39.621Z,10.98
2023-04-28T11:38:49.045Z,9.30
2023-04-28T11:43:50.987Z,8.18
2023-04-28T11:49:06.041Z,8.30
2023-04-28T11:54:11.184Z,7.57
2023-04-28T11:59:13.877Z,7.68
2023-04-28T12:04:27.888Z,7.72
2023-04-28T12:09:29.905Z,7.40
2023-04-28T12:14:35.449Z,7.55
2023-04-28T12:19:45.121Z,7.28
2023-04-28T12:24:47.002Z,6.90
2023-04-28T12:29:48.994Z,7.13
2023-04-28T12:34:51.335Z,7.55
2023-04-28T12:39:53.033Z,6.88
2023-04-28T12:44:57.301Z,6.85
2023-04-28T12:49:59.198Z,6.70
2023-04-28T12:55:01.020Z,6.72
2023-04-28T13:00:03.165Z,6.95
2023-04-28T13:05:05.440Z,7.03
2023-04-28T13:10:08.331Z,7.07
2023-04-28T13:15:10.896Z,7.13
2023-04-28T13:20:12.723Z,6.72
2023-04-28T13:25:15.201Z,6.50
2023-04-28T13:30:16.994Z,6.47
2023-04-28T13:35:19.244Z,6.10
2023-04-28T13:40:21.191Z,6.60
2023-04-28T13:45:23.024Z,7.25
2023-04-28T13:50:24.816Z,6.00
2023-04-28T13:55:30.566Z,5.90
2023-04-28T14:00:32.752Z,6.57
2023-04-28T14:05:48.319Z,5.78
2023-04-28T14:10:51.740Z,5.25
2023-04-28T14:15:59.465Z,4.85
2023-04-28T14:21:02.352Z,4.85
2023-04-28T14:26:04.223Z,5.10
2023-04-28T14:31:07.427Z,4.68
2023-04-28T14:36:10.281Z,4.30
2023-04-28T14:41:12.068Z,6.70
2023-04-28T14:46:14.041Z,4.40
2023-04-28T14:51:15.823Z,4.05
2023-04-28T14:56:19.790Z,5.38
2023-04-28T15:01:21.721Z,5.15
2023-04-28T15:06:23.478Z,4.63
2023-04-28T15:11:25.769Z,5.35
2023-04-28T15:16:27.540Z,4.75
2023-04-28T15:21:31.051Z,4.20
2023-04-28T15:26:33.048Z,4.78
2023-04-28T15:31:34.963Z,5.22
2023-04-28T15:36:40.353Z,5.13
2023-04-28T15:41:42.506Z,5.13
2023-04-28T15:46:44.964Z,5.07
2023-04-28T15:51:46.825Z,5.47
2023-04-28T15:56:48.635Z,6.18
2023-04-28T16:01:50.332Z,5.70
2023-04-28T16:06:52.905Z,5.72
2023-04-28T16:11:55.336Z,7.53
2023-04-28T16:16:59.664Z,6.13
2023-04-28T16:22:01.570Z,5.45
2023-04-28T16:27:03.599Z,4.78
2023-04-28T16:32:06.300Z,10.20
2023-04-28T16:37:08.271Z,7.75
2023-04-28T16:42:10.299Z,5.18
2023-04-28T16:47:14.360Z,5.95
2023-04-28T16:52:16.652Z,5.68
2023-04-28T16:57:18.378Z,5.68
2023-04-28T17:02:20.248Z,6.20
2023-04-28T17:07:24.175Z,7.00
2023-04-28T17:12:27.353Z,6.85
2023-04-28T17:17:29.172Z,8.35
2023-04-28T17:22:32.057Z,6.57
2023-04-28T17:27:33.755Z,7.32
2023-04-28T17:32:36.600Z,6.93
2023-04-28T17:37:38.486Z,8.13
2023-04-28T17:42:40.255Z,8.05
2023-04-28T17:47:41.991Z,7.55
2023-04-28T17:52:44.263Z,7.63
2023-04-28T17:57:46.210Z,7.75
2023-04-28T18:02:47.900Z,6.65
2023-04-28T18:07:49.954Z,8.30
2023-04-28T18:12:53.010Z,7.32
2023-04-28T18:17:56.983Z,7.20
2023-04-28T18:23:01.240Z,7.78
2023-04-28T18:28:03.692Z,7.72
2023-04-28T18:33:08.001Z,7.95
2023-04-28T18:38:09.801Z,8.43
2023-04-28T18:43:11.744Z,8.13
2023-04-28T18:48:13.628Z,9.25
2023-04-28T18:53:15.671Z,8.77
2023-04-28T18:58:18.377Z,9.13
2023-04-28T19:03:23.852Z,9.52
2023-04-28T19:08:25.616Z,9.35
2023-04-28T19:13:27.346Z,10.45
2023-04-28T19:18:31.469Z,9.15
2023-04-28T19:23:33.699Z,10.63
2023-04-28T19:28:35.926Z,10.07
2023-04-28T19:33:37.857Z,9.85
2023-04-28T19:38:40.233Z,10.65
2023-04-28T19:43:43.436Z,10.32
2023-04-28T19:48:46.526Z,11.00
2023-04-28T19:53:49.370Z,10.38
2023-04-28T19:58:51.133Z,10.63
2023-04-28T20:03:54.147Z,11.13
2023-04-28T20:08:55.938Z,10.43
2023-04-28T20:13:57.854Z,10.00
2023-04-28T20:18:59.562Z,10.93
2023-04-28T20:24:01.261Z,11.05
2023-04-28T20:29:03.291Z,11.50
2023-04-28T20:34:04.993Z,11.68
2023-04-28T20:39:10.895Z,11.27
2023-04-28T20:44:12.711Z,11.35
2023-04-28T20:49:15.146Z,11.75
2023-04-28T20:54:16.859Z,12.10
2023-04-28T20:59:18.542Z,11.75
2023-04-28T21:04:20.349Z,11.77
2023-04-28T21:09:25.884Z,11.80
2023-04-28T21:14:27.720Z,11.40
2023-04-28T21:19:32.542Z,12.13
2023-04-28T21:24:34.244Z,13.50
2023-04-28T21:29:35.918Z,14.35
2023-04-28T21:34:37.656Z,14.55
2023-04-28T21:39:39.452Z,14.32
2023-04-28T21:44:41.624Z,12.90
2023-04-28T21:49:43.957Z,12.90
2023-04-28T21:54:47.675Z,13.02
2023-04-28T21:59:50.077Z,13.07
2023-04-28T22:04:52.074Z,12.25
2023-04-28T22:09:54.326Z,12.75
2023-04-28T22:14:56.173Z,13.45
2023-04-28T22:19:58.849Z,13.30
2023-04-28T22:25:00.680Z,12.45
2023-04-28T22:30:02.417Z,13.45
2023-04-28T22:35:04.659Z,13.02
2023-04-28T22:40:08.447Z,13.38
2023-04-28T22:45:10.961Z,13.30
2023-04-28T22:50:12.858Z,13.18
2023-04-28T22:55:14.706Z,12.77
2023-04-28T23:00:16.612Z,13.30
2023-04-28T23:05:18.401Z,12.93
2023-04-28T23:10:20.074Z,13.00
2023-04-28T23:15:21.769Z,12.90
2023-04-28T23:20:23.434Z,12.52
2023-04-28T23:25:25.929Z,12.80
2023-04-28T23:30:27.591Z,11.32
2023-04-28T23:35:29.587Z,12.05
2023-04-28T23:40:31.445Z,11.82
2023-04-28T23:45:33.195Z,12.25
2023-04-28T23:50:34.959Z,12.57
2023-04-28T23:55:36.859Z,11.88
